createdAt,value
2018-12-04T00:01:37.646Z,100306.20
2018-12-04T00:04:16.967Z,100313.62
2018-12-04T00:06:57.629Z,100325.75
2018-12-04T00:09:36.102Z,100337.97
2018-12-04T00:12:07.523Z,100343.80
2018-12-04T00:14:41.695Z,100355.14
2018-12-04T00:17:20.512Z,100364.35
2018-12-04T00:19:58.769Z,100368.95
2018-12-04T00:22:33.779Z,100379.84
2018-12-04T00:25:12.081Z,100387.25
2018-12-04T00:30:40.610Z,100412.64
2018-12-04T00:33:20.550Z,100418.75
2018-12-04T00:36:05.127Z,100427.16
2018-12-04T00:38:39.549Z,100441.11
2018-12-04T00:41:13.519Z,100443.95
2018-12-04T00:49:41.767Z,100463.87
2018-12-04T00:52:13.824Z,100473.20
2018-12-04T00:54:51.645Z,100487.25
2018-12-04T00:57:29.898Z,100496.78
2018-12-04T01:00:08.063Z,100510.92
2018-12-04T01:05:52.388Z,100516.23
2018-12-04T01:08:30.240Z,100525.48
2018-12-04T01:11:01.815Z,100529.21
2018-12-04T01:13:42.220Z,100538.91
2018-12-04T01:16:17.577Z,100536.55
2018-12-04T01:18:57.534Z,100526.97
2018-12-04T01:21:49.826Z,100550.52
2018-12-04T01:24:21.019Z,100555.28
2018-12-04T01:26:52.435Z,100566.12
2018-12-04T01:29:30.173Z,100583.66
2018-12-04T01:32:05.105Z,100579.08
2018-12-04T01:34:45.780Z,100591.11
2018-12-04T01:37:24.125Z,100594.17
2018-12-04T01:40:02.189Z,100595.91
2018-12-04T01:45:26.755Z,100604.35
2018-12-04T01:47:56.679Z,100607.03
2018-12-04T01:50:34.537Z,100615.05
2018-12-04T01:53:13.712Z,100619.09
2018-12-04T01:55:56.493Z,100624.36
2018-12-04T01:58:35.034Z,100638.38
2018-12-04T02:01:06.493Z,100645.39
2018-12-04T02:03:42.381Z,100657.02
2018-12-04T02:06:21.288Z,100657.97
2018-12-04T02:09:02.076Z,100659.16
2018-12-04T02:11:41.384Z,100670.77
2018-12-04T02:14:26.309Z,100677.91
2018-12-04T02:17:04.798Z,100680.98
2018-12-04T02:19:45.428Z,100694.41
2018-12-04T02:22:15.068Z,100697.52
2018-12-04T02:24:57.876Z,100699.11
2018-12-04T02:27:38.334Z,100697.67
2018-12-04T02:30:30.628Z,100700.50
2018-12-04T02:38:55.438Z,100710.11
2018-12-04T02:41:27.021Z,100709.58
2018-12-04T02:43:59.137Z,100716.80
2018-12-04T02:46:37.057Z,100725.45
2018-12-04T02:52:04.258Z,100730.79
2018-12-04T02:54:44.934Z,100736.95
2018-12-04T02:57:23.297Z,100746.25
2018-12-04T03:00:01.351Z,100749.28
2018-12-04T03:02:40.548Z,100760.53
2018-12-04T03:05:11.947Z,100766.41
2018-12-04T03:07:49.710Z,100763.28
2018-12-04T03:10:27.731Z,100769.41
2018-12-04T03:13:06.792Z,100775.94
2018-12-04T03:15:48.610Z,100778.52
2018-12-04T03:18:27.053Z,100785.98
2018-12-04T03:20:58.311Z,100785.38
2018-12-04T03:23:36.393Z,100791.42
2018-12-04T03:26:16.126Z,100795.90
2018-12-04T03:28:47.179Z,100800.61
2018-12-04T03:31:25.986Z,100819.36
2018-12-04T03:34:01.204Z,100812.32
2018-12-04T03:36:41.932Z,100821.95
2018-12-04T03:39:20.296Z,100821.00
2018-12-04T03:42:05.097Z,100826.83
2018-12-04T03:47:32.260Z,100834.88
2018-12-04T03:50:22.093Z,100840.48
2018-12-04T03:53:01.108Z,100853.20
2018-12-04T03:55:39.215Z,100856.73
2018-12-04T03:58:31.368Z,100861.66
2018-12-04T04:01:02.806Z,100859.75
2018-12-04T04:03:36.858Z,100863.45
2018-12-04T04:06:17.430Z,100859.06
2018-12-04T04:09:03.486Z,100864.33
2018-12-04T04:14:02.038Z,100875.91
2018-12-04T04:16:39.936Z,100884.78
2018-12-04T04:19:18.841Z,100886.74
2018-12-04T04:21:52.663Z,100899.06
2018-12-04T04:24:30.459Z,100904.58
2018-12-04T04:27:08.334Z,100912.02
2018-12-04T04:29:47.168Z,100912.26
2018-12-04T04:32:25.153Z,100922.36
2018-12-04T04:35:01.421Z,100926.25
2018-12-04T04:37:35.626Z,100934.13
2018-12-04T04:40:09.445Z,100935.82
2018-12-04T04:42:47.251Z,100936.73
2018-12-04T04:48:18.456Z,100954.94
2018-12-04T04:50:53.562Z,100961.84
2018-12-04T04:53:31.690Z,100966.20
2018-12-04T04:56:09.675Z,100960.66
2018-12-04T04:58:42.209Z,100964.39
2018-12-04T05:01:15.277Z,100968.87
2018-12-04T05:04:06.469Z,100972.06
2018-12-04T05:06:37.549Z,100977.94
2018-12-04T05:09:16.206Z,100988.56
2018-12-04T05:11:51.190Z,100992.38
2018-12-04T05:14:29.132Z,101001.85
2018-12-04T05:17:07.971Z,101005.03
2018-12-04T05:19:39.211Z,101007.30
2018-12-04T05:22:21.557Z,101019.53
2018-12-04T05:25:07.635Z,101026.54
2018-12-04T05:27:46.163Z,101029.08
2018-12-04T05:30:25.360Z,101035.89
2018-12-04T05:32:58.717Z,101037.96
2018-12-04T05:38:37.019Z,101044.14
2018-12-04T05:41:08.077Z,101048.91
2018-12-04T05:43:59.763Z,101048.35
2018-12-04T05:46:45.174Z,101059.63
2018-12-04T05:49:24.783Z,101061.91
2018-12-04T05:51:56.813Z,101065.11
2018-12-04T05:54:28.062Z,101070.50
2018-12-04T05:57:03.702Z,101072.24
2018-12-04T05:59:42.382Z,101076.79
2018-12-04T06:02:17.583Z,101082.16
2018-12-04T06:07:49.764Z,101093.10
2018-12-04T06:10:28.760Z,101094.98
2018-12-04T06:13:06.923Z,101103.34
2018-12-04T06:15:47.758Z,101118.17
2018-12-04T06:18:20.081Z,101132.37
2018-12-04T06:21:00.057Z,101151.78
2018-12-04T06:23:53.354Z,101157.00
2018-12-04T06:26:25.986Z,101166.44
2018-12-04T06:28:57.145Z,101170.58
2018-12-04T06:31:30.127Z,101175.09
2018-12-04T06:34:09.935Z,101171.41
2018-12-04T06:36:47.867Z,101187.53
2018-12-04T06:39:23.083Z,101186.20
2018-12-04T06:44:48.434Z,101195.20
2018-12-04T06:47:22.592Z,101205.06
2018-12-04T06:50:00.517Z,101212.98
2018-12-04T06:52:34.789Z,101214.91
2018-12-04T06:55:16.128Z,101219.39
2018-12-04T06:58:01.145Z,101220.20
2018-12-04T07:00:40.837Z,101231.92
2018-12-04T07:03:16.795Z,101233.73
2018-12-04T07:05:54.898Z,101238.96
2018-12-04T07:08:33.926Z,101246.19
2018-12-04T07:11:07.915Z,101255.81
2018-12-04T07:13:49.589Z,101262.14
2018-12-04T07:16:29.992Z,101269.53
2018-12-04T07:21:54.583Z,101288.20
2018-12-04T07:24:35.308Z,101291.88
2018-12-04T07:27:14.486Z,101295.26
2018-12-04T07:32:39.183Z,101307.88
2018-12-04T07:35:11.622Z,101305.04
2018-12-04T07:37:51.331Z,101310.55
2018-12-04T07:40:30.355Z,101324.75
2018-12-04T07:43:09.461Z,101326.70
2018-12-04T07:45:48.395Z,101333.14
2018-12-04T07:48:20.855Z,101341.81
2018-12-04T07:50:52.802Z,101353.17
2018-12-04T07:56:24.526Z,101367.62
2018-12-04T07:59:03.559Z,101376.45
2018-12-04T08:04:34.422Z,101393.03
2018-12-04T08:07:10.292Z,101389.47
2018-12-04T08:09:49.492Z,101392.82
2018-12-04T08:12:28.446Z,101399.72
2018-12-04T08:15:21.655Z,101407.01
2018-12-04T08:18:00.723Z,101412.71
2018-12-04T08:20:34.815Z,101415.66
2018-12-04T08:23:07.959Z,101424.91
2018-12-04T08:25:49.332Z,101418.29
2018-12-04T08:28:22.140Z,101436.92
2018-12-04T08:30:54.996Z,101436.84
2018-12-04T08:33:30.120Z,101445.50
2018-12-04T08:36:10.077Z,101458.09
2018-12-04T08:38:52.713Z,101468.27
2018-12-04T08:41:25.491Z,101468.67
2018-12-04T08:44:04.397Z,101469.02
2018-12-04T08:46:38.514Z,101475.36
2018-12-04T08:49:22.866Z,101482.67
2018-12-04T08:51:54.614Z,101485.64
2018-12-04T08:54:34.248Z,101485.62
2018-12-04T08:57:09.205Z,101490.17
2018-12-04T08:59:48.433Z,101489.59
2018-12-04T09:02:23.464Z,101502.53
2018-12-04T09:05:03.443Z,101505.67
2018-12-04T09:07:42.821Z,101509.25
2018-12-04T09:10:21.751Z,101514.23
2018-12-04T09:12:53.889Z,101518.09
2018-12-04T09:15:32.655Z,101521.46
2018-12-04T09:18:11.571Z,101534.66
2018-12-04T09:20:49.648Z,101535.91
2018-12-04T09:23:31.425Z,101547.36
2018-12-04T09:26:09.824Z,101556.34
2018-12-04T09:28:48.753Z,101557.74
2018-12-04T09:31:21.232Z,101569.61
2018-12-04T09:34:00.951Z,101573.87
2018-12-04T09:36:40.186Z,101588.42
2018-12-04T09:39:20.328Z,101591.02
2018-12-04T09:41:55.465Z,101588.03
2018-12-04T09:44:29.696Z,101596.27
2018-12-04T09:47:07.778Z,101602.56
2018-12-04T09:49:42.057Z,101616.39
2018-12-04T09:52:14.221Z,101613.37
2018-12-04T09:54:53.193Z,101621.25
2018-12-04T09:57:33.359Z,101630.61
2018-12-04T10:00:12.494Z,101634.98
2018-12-04T10:02:43.794Z,101640.31
2018-12-04T10:05:28.635Z,101635.67
2018-12-04T10:08:07.935Z,101633.53
2018-12-04T10:10:46.149Z,101641.31
2018-12-04T10:13:25.171Z,101639.41
2018-12-04T10:15:59.285Z,101649.90
2018-12-04T10:18:38.405Z,101647.90
2018-12-04T10:21:10.600Z,101651.78
2018-12-04T10:23:50.553Z,101652.45
2018-12-04T10:26:22.069Z,101646.92
2018-12-04T10:28:55.934Z,101653.78
2018-12-04T10:31:28.048Z,101658.66
2018-12-04T10:34:01.010Z,101653.93
2018-12-04T10:36:38.977Z,101656.98
2018-12-04T10:39:17.975Z,101657.25
2018-12-04T10:41:51.430Z,101664.31
2018-12-04T10:44:29.324Z,101661.48
2018-12-04T10:47:07.383Z,101669.17
2018-12-04T10:49:39.982Z,101671.72
2018-12-04T10:52:12.456Z,101677.63
2018-12-04T10:54:51.073Z,101678.59
2018-12-04T10:57:30.298Z,101680.05
2018-12-04T11:00:11.273Z,101684.98
2018-12-04T11:02:48.514Z,101684.34
2018-12-04T11:05:20.017Z,101688.55
2018-12-04T11:07:58.952Z,101696.98
2018-12-04T11:13:23.696Z,101696.69
2018-12-04T11:16:01.442Z,101696.50
2018-12-04T11:21:27.633Z,101704.13
2018-12-04T11:24:06.736Z,101699.48
2018-12-04T11:26:45.738Z,101714.73
2018-12-04T11:29:24.692Z,101715.78
2018-12-04T11:32:02.802Z,101719.69
2018-12-04T11:34:35.396Z,101723.59
2018-12-04T11:37:13.779Z,101721.70
2018-12-04T11:39:51.783Z,101725.29
2018-12-04T11:42:24.090Z,101733.58
2018-12-04T11:45:02.988Z,101724.62
2018-12-04T11:47:43.231Z,101736.59
2018-12-04T11:50:30.769Z,101744.10
2018-12-04T11:53:01.505Z,101743.31
2018-12-04T11:55:41.002Z,101740.39
2018-12-04T11:58:10.969Z,101750.56
2018-12-04T12:00:48.940Z,101753.38
2018-12-04T12:03:28.885Z,101737.93
2018-12-04T12:06:01.427Z,101742.48
2018-12-04T12:11:31.026Z,101749.89
2018-12-04T12:14:12.733Z,101749.52
2018-12-04T12:16:52.053Z,101748.26
2018-12-04T12:19:30.735Z,101750.30
2018-12-04T12:22:02.592Z,101755.52
2018-12-04T12:24:40.414Z,101759.63
2018-12-04T12:27:31.396Z,101766.12
2018-12-04T12:30:12.857Z,101763.88
2018-12-04T12:32:48.213Z,101768.09
2018-12-04T12:35:36.486Z,101770.05
2018-12-04T12:38:11.439Z,101769.35
2018-12-04T12:40:51.490Z,101768.45
2018-12-04T12:43:35.363Z,101772.86
2018-12-04T12:46:18.374Z,101773.86
2018-12-04T12:48:56.688Z,101782.00
2018-12-04T12:51:31.998Z,101785.88
2018-12-04T12:54:08.152Z,101786.31
2018-12-04T12:56:46.500Z,101792.28
2018-12-04T12:59:33.489Z,101792.73
2018-12-04T13:02:05.916Z,101796.23
2018-12-04T13:04:45.614Z,101803.73
2018-12-04T13:07:23.898Z,101804.30
2018-12-04T13:10:03.126Z,101797.78
2018-12-04T13:12:34.434Z,101806.71
2018-12-04T13:15:14.065Z,101807.14
2018-12-04T13:17:49.073Z,101813.48
2018-12-04T13:20:41.332Z,101822.48
2018-12-04T13:23:19.428Z,101821.06
2018-12-04T13:25:51.449Z,101828.40
2018-12-04T13:28:36.880Z,101836.00
2018-12-04T13:31:11.411Z,101832.38
2018-12-04T13:33:49.534Z,101834.85
2018-12-04T13:36:37.533Z,101840.83
2018-12-04T13:39:14.400Z,101844.29
2018-12-04T13:41:45.018Z,101845.27
2018-12-04T13:44:26.316Z,101851.70
2018-12-04T13:46:58.947Z,101853.59
2018-12-04T13:49:36.815Z,101854.28
2018-12-04T13:52:09.156Z,101853.98
2018-12-04T13:54:47.786Z,101862.85
2018-12-04T14:00:23.536Z,101868.26
2018-12-04T14:02:56.318Z,101867.48
2018-12-04T14:05:28.123Z,101883.91
2018-12-04T14:07:59.884Z,101884.81
2018-12-04T14:13:33.487Z,101882.81
2018-12-04T14:16:05.913Z,101891.31
2018-12-04T14:18:43.733Z,101897.73
2018-12-04T14:21:17.886Z,101895.86
2018-12-04T14:23:59.416Z,101896.28
2018-12-04T14:26:30.944Z,101901.13
2018-12-04T14:29:09.742Z,101909.88
2018-12-04T14:31:41.006Z,101906.01
2018-12-04T14:34:19.632Z,101905.27
2018-12-04T14:36:54.085Z,101903.95
2018-12-04T14:39:34.853Z,101907.70
2018-12-04T14:42:07.129Z,101911.14
2018-12-04T14:44:39.219Z,101919.91
2018-12-04T14:47:17.768Z,101927.38
2018-12-04T14:49:50.171Z,101935.02
2018-12-04T14:52:23.361Z,101941.47
2018-12-04T14:55:01.277Z,101941.55
2018-12-04T14:57:34.927Z,101941.66
2018-12-04T15:00:20.358Z,101939.75
2018-12-04T15:02:59.519Z,101940.64
2018-12-04T15:05:37.728Z,101946.98
2018-12-04T15:08:24.368Z,101954.69
2018-12-04T15:11:13.914Z,101949.88
2018-12-04T15:13:56.468Z,101962.73
2018-12-04T15:16:35.143Z,101957.99
2018-12-04T15:19:06.337Z,101966.80
2018-12-04T15:21:42.142Z,101971.24
2018-12-04T15:24:21.793Z,101973.08
2018-12-04T15:27:00.125Z,101982.22
2018-12-04T15:29:40.273Z,101984.75
2018-12-04T15:32:20.594Z,101991.63
2018-12-04T15:34:58.352Z,101994.17
2018-12-04T15:37:30.672Z,101993.08
2018-12-04T15:40:02.788Z,102001.39
2018-12-04T15:42:44.980Z,102009.77
2018-12-04T15:45:19.723Z,102006.95
2018-12-04T15:47:51.012Z,102018.90
2018-12-04T15:50:36.602Z,102016.36
2018-12-04T15:53:16.141Z,102014.71
2018-12-04T15:58:49.275Z,102027.38
2018-12-04T16:01:21.540Z,102024.80
2018-12-04T16:04:08.681Z,102023.02
2018-12-04T16:06:52.073Z,102024.17
2018-12-04T16:09:26.480Z,102028.14
2018-12-04T16:12:00.575Z,102026.99
2018-12-04T16:14:32.835Z,102034.22
2018-12-04T16:17:15.149Z,102039.85
2018-12-04T16:19:51.687Z,102039.59
2018-12-04T16:22:24.076Z,102044.56
2018-12-04T16:25:08.433Z,102045.54
2018-12-04T16:27:49.533Z,102042.48
2018-12-04T16:33:20.630Z,102046.55
2018-12-04T16:36:00.695Z,102055.83
2018-12-04T16:38:39.864Z,102055.51
2018-12-04T16:41:12.323Z,102059.32
2018-12-04T16:43:53.075Z,102060.41
2018-12-04T16:46:35.619Z,102057.88
2018-12-04T16:49:17.372Z,102053.82
2018-12-04T16:51:57.053Z,102050.33
2018-12-04T16:54:28.302Z,102053.51
2018-12-04T16:56:59.440Z,102056.98
2018-12-04T16:59:35.864Z,102056.87
2018-12-04T17:02:20.757Z,102051.67
2018-12-04T17:05:03.678Z,102053.91
2018-12-04T17:07:37.607Z,102054.21
2018-12-04T17:10:22.391Z,102055.64
2018-12-04T17:13:05.832Z,102053.98
2018-12-04T17:18:39.285Z,102063.14
2018-12-04T17:21:11.563Z,102067.31
2018-12-04T17:23:44.668Z,102075.52
2018-12-04T17:26:18.481Z,102073.66
2018-12-04T17:31:44.626Z,102079.43
2018-12-04T17:34:27.355Z,102080.57
2018-12-04T17:37:06.858Z,102078.22
2018-12-04T17:39:40.874Z,102088.22
2018-12-04T17:42:15.799Z,102087.52
2018-12-04T17:44:57.615Z,102084.17
2018-12-04T17:47:37.229Z,102095.26
2018-12-04T17:53:03.531Z,102100.23
2018-12-04T17:55:52.341Z,102099.59
2018-12-04T17:58:26.384Z,102099.48
2018-12-04T18:04:00.293Z,102108.86
2018-12-04T18:06:40.330Z,102111.57
2018-12-04T18:09:19.236Z,102110.39
2018-12-04T18:11:52.899Z,102111.91
2018-12-04T18:14:28.863Z,102116.08
2018-12-04T18:19:59.907Z,102117.23
2018-12-04T18:22:31.501Z,102115.58
2018-12-04T18:25:09.199Z,102107.41
2018-12-04T18:27:42.726Z,102111.23
2018-12-04T18:33:12.744Z,102117.94
2018-12-04T18:35:51.482Z,102118.77
2018-12-04T18:38:29.722Z,102128.14
2018-12-04T18:41:04.653Z,102124.23
2018-12-04T18:43:52.859Z,102140.16
2018-12-04T18:46:33.443Z,102142.37
2018-12-04T18:49:13.616Z,102147.55
2018-12-04T18:51:45.779Z,102152.05
2018-12-04T18:54:36.582Z,102150.22
2018-12-04T18:57:29.493Z,102146.48
2018-12-04T19:00:07.951Z,102152.73
2018-12-04T19:02:39.649Z,102145.28
2018-12-04T19:05:17.407Z,102153.59
2018-12-04T19:07:53.664Z,102154.17
2018-12-04T19:10:45.677Z,102160.98
2018-12-04T19:13:23.386Z,102163.05
2018-12-04T19:16:12.726Z,102164.34
2018-12-04T19:18:52.689Z,102164.81
2018-12-04T19:21:24.203Z,102170.04
2018-12-04T19:24:02.967Z,102167.12
2018-12-04T19:26:39.358Z,102164.45
2018-12-04T19:29:19.622Z,102167.64
2018-12-04T19:31:57.790Z,102164.56
2018-12-04T19:34:29.941Z,102173.64
2018-12-04T19:37:20.975Z,102168.00
2018-12-04T19:39:55.907Z,102170.33
2018-12-04T19:45:27.788Z,102187.44
2018-12-04T19:48:01.437Z,102184.22
2018-12-04T19:50:40.650Z,102186.37
2018-12-04T19:53:19.593Z,102187.34
2018-12-04T19:56:04.432Z,102191.91
2018-12-04T19:58:37.282Z,102199.84
2018-12-04T20:01:10.165Z,102194.44
2018-12-04T20:03:41.442Z,102191.12
2018-12-04T20:06:13.138Z,102193.24
2018-12-04T20:08:54.543Z,102195.38
2018-12-04T20:11:28.925Z,102195.85
2018-12-04T20:14:13.416Z,102198.05
2018-12-04T20:16:51.963Z,102195.17
2018-12-04T20:19:31.990Z,102200.81
2018-12-04T20:22:04.571Z,102206.23
2018-12-04T20:24:45.292Z,102200.70
2018-12-04T20:27:24.232Z,102209.98
2018-12-04T20:30:04.443Z,102225.72
2018-12-04T20:32:38.688Z,102231.17
2018-12-04T20:35:13.414Z,102239.92
2018-12-04T20:37:51.525Z,102234.15
2018-12-04T20:40:31.679Z,102242.77
2018-12-04T20:43:08.024Z,102245.12
2018-12-04T20:45:53.558Z,102246.05
2018-12-04T20:48:32.256Z,102249.50
2018-12-04T20:51:04.484Z,102249.00
2018-12-04T20:53:42.455Z,102242.75
2018-12-04T20:56:27.103Z,102245.77
2018-12-04T20:58:56.966Z,102247.66
2018-12-04T21:01:28.329Z,102251.11
2018-12-04T21:04:08.024Z,102256.06
2018-12-04T21:06:47.062Z,102254.48
2018-12-04T21:09:26.213Z,102254.95
2018-12-04T21:11:57.533Z,102257.20
2018-12-04T21:14:35.506Z,102254.17
2018-12-04T21:17:15.732Z,102267.27
2018-12-04T21:19:49.280Z,102265.88
2018-12-04T21:22:21.414Z,102258.31
2018-12-04T21:25:01.446Z,102265.11
2018-12-04T21:27:45.947Z,102263.27
2018-12-04T21:30:36.478Z,102251.96
2018-12-04T21:36:50.120Z,102247.00
2018-12-04T21:39:36.056Z,102251.23
2018-12-04T21:45:35.058Z,102250.39
2018-12-04T21:48:15.397Z,102254.84
2018-12-04T21:53:56.408Z,102258.00
2018-12-04T21:56:36.617Z,102257.30
2018-12-04T21:59:14.611Z,102257.55
2018-12-04T22:02:01.804Z,102257.18
2018-12-04T22:04:44.538Z,102260.41
2018-12-04T22:07:23.802Z,102261.94
2018-12-04T22:10:02.642Z,102256.82
2018-12-04T22:12:34.834Z,102257.17
2018-12-04T22:15:20.166Z,102254.11
2018-12-04T22:18:05.221Z,102253.20
2018-12-04T22:20:52.470Z,102257.80
2018-12-04T22:23:31.894Z,102256.37
2018-12-04T22:26:11.111Z,102258.47
2018-12-04T22:29:00.359Z,102265.20
2018-12-04T22:31:33.624Z,102267.21
2018-12-04T22:34:09.229Z,102266.92
2018-12-04T22:36:56.166Z,102261.88
2018-12-04T22:39:30.813Z,102265.11
2018-12-04T22:42:04.977Z,102271.27
2018-12-04T22:44:40.882Z,102275.13
2018-12-04T22:47:19.896Z,102261.80
2018-12-04T22:52:47.682Z,102262.47
2018-12-04T22:58:21.456Z,102264.37
2018-12-04T23:01:09.588Z,102257.80
2018-12-04T23:03:56.128Z,102255.39
2018-12-04T23:06:34.567Z,102248.79
2018-12-04T23:09:12.855Z,102249.23
2018-12-04T23:11:45.811Z,102254.64
2018-12-04T23:14:22.109Z,102249.66
2018-12-04T23:17:01.222Z,102259.69
2018-12-04T23:19:46.018Z,102250.40
2018-12-04T23:22:22.276Z,102257.72
2018-12-04T23:25:07.913Z,102255.52
2018-12-04T23:27:38.777Z,102264.79
2018-12-04T23:30:10.924Z,102268.45
2018-12-04T23:32:44.093Z,102260.97
2018-12-04T23:35:22.713Z,102256.42
2018-12-04T23:37:55.057Z,102256.03
2018-12-04T23:43:22.097Z,102248.42
2018-12-04T23:46:06.909Z,102240.30
2018-12-04T23:48:46.178Z,102242.68
2018-12-04T23:51:25.329Z,102233.27
2018-12-04T23:54:03.180Z,102230.72
2018-12-04T23:56:41.290Z,102228.77
2018-12-04T23:59:34.360Z,102228.32
